Time;durP1;ratioP1;P1;durP2;ratioP2;P2;SDS_P1;SDS_P2;PMS_P1;PMS_P2;Temp;Humidity;BMP_temperature;BMP_pressure;BME280_temperature;BME280_humidity;BME280_pressure;Samples;Min_cycle;Max_cycle;Signal;HPM_P1;HPM_P2
2021/03/08 00:01:29;;;;;;;;;12.25;9.50;;;;;11.50;45.21;98403.31;4718330;29;102019;-96
2021/03/08 00:03:56;;;;;;;;;12.75;10.00;;;;;11.48;45.02;98405.41;4764477;29;102304;-96
2021/03/08 00:06:26;;;;;;;;;11.25;10.25;;;;;11.50;44.88;98414.16;4774075;29;101789;-96
2021/03/08 00:08:54;;;;;;;;;12.00;11.00;;;;;11.52;45.38;98412.06;4772874;29;104130;-96
2021/03/08 00:11:21;;;;;;;;;7.75;7.75;;;;;11.48;45.07;98408.94;4773790;29;102203;-96
2021/03/08 00:13:48;;;;;;;;;12.75;11.00;;;;;11.48;44.69;98406.22;4732615;29;105624;-96
2021/03/08 00:16:16;;;;;;;;;7.00;7.00;;;;;11.46;45.06;98405.63;4759741;29;100990;-96
2021/03/08 00:18:44;;;;;;;;;11.50;9.75;;;;;11.53;44.89;98414.53;4749569;29;102112;-96
2021/03/08 00:21:11;;;;;;;;;10.75;9.00;;;;;11.49;44.99;98412.47;4759831;29;102315;-96
2021/03/08 00:23:39;;;;;;;;;13.00;10.75;;;;;11.47;44.57;98409.16;4747947;29;103561;-96
2021/03/08 00:26:07;;;;;;;;;12.00;10.00;;;;;11.41;45.17;98412.69;4776383;29;101774;-96
2021/03/08 00:28:35;;;;;;;;;10.75;8.50;;;;;11.50;45.45;98420.41;4753947;29;101563;-96
2021/03/08 00:31:02;;;;;;;;;9.50;9.50;;;;;11.40;45.19;98402.91;4741586;29;101776;-96
2021/03/08 00:33:30;;;;;;;;;11.25;9.25;;;;;11.43;44.88;98407.94;4762774;29;105711;-96
2021/03/08 00:35:58;;;;;;;;;7.25;7.25;;;;;11.39;44.57;98406.69;4766110;29;105063;-96
2021/03/08 00:38:26;;;;;;;;;13.50;12.00;;;;;11.40;45.04;98414.56;4783473;29;102099;-96
2021/03/08 00:40:53;;;;;;;;;7.75;7.00;;;;;11.37;44.72;98415.00;4785015;29;101642;-96
2021/03/08 00:43:20;;;;;;;;;10.00;8.00;;;;;11.42;44.85;98417.09;4750999;29;104089;-96
2021/03/08 00:45:48;;;;;;;;;8.25;7.25;;;;;11.36;45.20;98401.66;4771192;29;101649;-96
2021/03/08 00:48:15;;;;;;;;;11.00;10.00;;;;;11.35;45.26;98400.84;4768149;29;102127;-96
2021/03/08 00:50:42;;;;;;;;;11.50;10.00;;;;;11.33;44.65;98396.69;4771969;29;102119;-96
2021/03/08 00:53:09;;;;;;;;;12.50;9.75;;;;;11.34;45.08;98393.78;4784647;29;104374;-96
2021/03/08 00:55:36;;;;;;;;;9.00;7.75;;;;;11.31;45.05;98390.63;4727847;29;101840;-96
2021/03/08 00:58:03;;;;;;;;;10.50;9.00;;;;;11.34;44.50;98395.66;4737841;29;101844;-96
2021/03/08 01:00:30;;;;;;;;;11.00;8.00;;;;;11.34;44.89;98404.59;4772505;29;102439;-96
2021/03/08 01:02:57;;;;;;;;;8.00;8.00;;;;;11.31;45.04;98402.31;4744708;29;104643;-96
2021/03/08 01:05:24;;;;;;;;;8.00;7.00;;;;;11.36;45.26;98399.81;4757056;29;102138;-96
2021/03/08 01:07:51;;;;;;;;;9.50;7.75;;;;;11.35;44.21;98403.53;4704599;29;102132;-96
2021/03/08 01:10:20;;;;;;;;;10.00;8.00;;;;;11.29;44.48;98395.44;4749187;29;101869;-96
2021/03/08 01:12:48;;;;;;;;;10.75;9.25;;;;;11.29;44.45;98385.47;4765223;29;102162;-96
2021/03/08 01:15:15;;;;;;;;;7.00;6.50;;;;;11.28;44.88;98400.03;4752302;29;102179;-96
2021/03/08 01:17:43;;;;;;;;;11.00;10.00;;;;;11.26;44.61;98396.69;4785428;29;101595;-96
2021/03/08 01:20:15;;;;;;;;;10.25;9.50;;;;;11.27;45.02;98398.34;4774518;29;102174;-96
2021/03/08 01:22:42;;;;;;;;;11.00;9.50;;;;;11.22;44.54;98381.06;4715253;29;107920;-96
2021/03/08 01:25:10;;;;;;;;;9.00;7.00;;;;;11.33;44.63;98397.53;4773913;29;101643;-96
2021/03/08 01:27:38;;;;;;;;;11.00;9.75;;;;;11.21;44.48;98372.16;4770755;29;102067;-96
2021/03/08 01:30:17;;;;;;;;;8.25;7.50;;;;;11.23;44.62;98375.47;4754039;29;102138;-97
2021/03/08 01:32:44;;;;;;;;;9.50;7.50;;;;;11.26;44.61;98377.75;4753407;29;108679;-96
2021/03/08 01:35:11;;;;;;;;;12.25;9.50;;;;;11.22;44.28;98373.78;4758885;29;102790;-96
2021/03/08 01:37:39;;;;;;;;;11.25;9.50;;;;;11.22;44.68;98379.22;4759733;29;102173;-96
2021/03/08 01:40:13;;;;;;;;;11.00;7.50;;;;;11.24;44.67;98377.13;4748468;29;102249;-96
2021/03/08 01:42:40;;;;;;;;;12.50;10.00;;;;;11.24;44.63;98374.44;4773588;29;108886;-96
2021/03/08 01:45:13;;;;;;;;;7.50;7.00;;;;;11.25;44.57;98365.28;4758379;29;101838;-96
2021/03/08 01:47:40;;;;;;;;;6.00;5.00;;;;;11.21;44.48;98366.75;4770489;29;102200;-96
2021/03/08 01:50:13;;;;;;;;;10.50;10.00;;;;;11.21;44.52;98369.44;4776105;29;101793;-96
2021/03/08 01:52:41;;;;;;;;;8.25;8.25;;;;;11.19;44.98;98369.66;4770693;29;110046;-96
2021/03/08 01:55:09;;;;;;;;;10.50;7.50;;;;;11.20;44.66;98367.78;4767719;29;101534;-96
2021/03/08 01:57:36;;;;;;;;;10.25;8.00;;;;;11.19;44.55;98372.34;4772550;29;105491;-96
2021/03/08 02:00:19;;;;;;;;;8.50;7.00;;;;;11.17;44.51;98366.31;4676341;29;101882;-96
2021/03/08 02:02:47;;;;;;;;;10.50;9.00;;;;;11.14;44.61;98350.50;4734822;29;104962;-96
2021/03/08 02:05:16;;;;;;;;;9.50;7.50;;;;;11.18;44.47;98359.03;4750532;29;101616;-96
2021/03/08 02:07:44;;;;;;;;;8.25;6.00;;;;;11.15;44.47;98357.59;4751888;29;102098;-96
2021/03/08 02:10:12;;;;;;;;;10.50;9.50;;;;;11.17;44.39;98355.47;4759023;29;102210;-96
2021/03/08 02:12:48;;;;;;;;;10.75;9.25;;;;;11.21;44.38;98361.31;4770104;29;107662;-96
2021/03/08 02:15:18;;;;;;;;;9.00;9.00;;;;;11.20;44.64;98362.38;4767071;29;102069;-96
2021/03/08 02:17:57;;;;;;;;;8.25;6.25;;;;;11.21;44.58;98357.78;4770085;29;101839;-96
2021/03/08 02:20:48;;;;;;;;;9.50;6.50;;;;;11.18;44.63;98357.16;4787921;29;103361;-96
2021/03/08 02:23:52;;;;;;;;;7.25;6.50;;;;;11.18;44.64;98356.31;4750974;29;110415;-96
2021/03/08 02:26:19;;;;;;;;;9.50;9.00;;;;;11.18;44.57;98356.31;4770423;29;102125;-96
2021/03/08 02:28:46;;;;;;;;;10.00;7.00;;;;;11.17;44.36;98360.06;4760947;29;101767;-96
2021/03/08 02:31:17;;;;;;;;;9.75;8.00;;;;;11.07;44.83;98344.28;4776421;29;101933;-96
2021/03/08 02:34:08;;;;;;;;;6.75;4.75;;;;;11.16;44.54;98363.84;4754683;29;107962;-96
2021/03/08 02:36:39;;;;;;;;;8.00;7.25;;;;;11.10;44.16;98348.44;4709563;29;102177;-96
2021/03/08 02:39:27;;;;;;;;;9.50;7.25;;;;;11.08;44.26;98348.63;4766574;29;102093;-96
2021/03/08 02:41:55;;;;;;;;;11.75;7.00;;;;;11.08;44.46;98351.34;4722864;29;102173;-96
2021/03/08 02:44:26;;;;;;;;;6.00;6.00;;;;;11.11;44.52;98348.22;4766571;29;104028;-96
2021/03/08 02:46:54;;;;;;;;;10.00;8.50;;;;;11.05;44.27;98345.50;4772080;29;102014;-96
2021/03/08 02:49:23;;;;;;;;;9.75;7.00;;;;;11.08;43.63;98347.78;4783725;29;102183;-96
2021/03/08 02:51:59;;;;;;;;;7.25;7.00;;;;;11.07;44.50;98343.44;4770985;29;101704;-96
2021/03/08 02:54:27;;;;;;;;;9.00;7.00;;;;;11.05;44.29;98345.50;4773472;29;103190;-96
2021/03/08 02:56:57;;;;;;;;;8.75;7.50;;;;;11.10;44.32;98357.38;4741359;29;101842;-96
2021/03/08 02:59:24;;;;;;;;;9.25;5.75;;;;;11.04;44.40;98341.13;4785382;29;102211;-96
2021/03/08 03:01:51;;;;;;;;;7.50;6.00;;;;;11.02;44.27;98348.66;4753863;29;101844;-96
2021/03/08 03:04:19;;;;;;;;;8.25;6.75;;;;;11.03;44.44;98350.31;4755468;29;103093;-96
2021/03/08 03:06:46;;;;;;;;;7.50;6.00;;;;;11.03;44.44;98351.13;4770741;29;102200;-96
2021/03/08 03:09:13;;;;;;;;;10.00;6.25;;;;;11.02;44.80;98345.94;4792155;29;102177;-96
2021/03/08 03:11:41;;;;;;;;;6.25;6.00;;;;;11.03;44.34;98340.31;4776317;29;102151;-96
2021/03/08 03:14:09;;;;;;;;;9.25;7.75;;;;;11.06;44.21;98348.03;4757752;29;104111;-96
2021/03/08 03:16:35;;;;;;;;;9.25;6.75;;;;;11.03;44.25;98351.13;4789607;29;102191;-96
2021/03/08 03:19:03;;;;;;;;;6.00;5.00;;;;;11.01;44.09;98338.88;4756980;29;102186;-96
2021/03/08 03:21:31;;;;;;;;;7.50;6.00;;;;;10.99;44.27;98332.81;4788953;29;102192;-96
2021/03/08 03:23:58;;;;;;;;;7.50;6.25;;;;;11.03;44.33;98337.59;4773227;29;103021;-96
2021/03/08 03:26:25;;;;;;;;;8.00;5.75;;;;;11.04;44.12;98341.97;4774690;29;105429;-96
2021/03/08 03:28:51;;;;;;;;;8.75;6.50;;;;;10.94;44.52;98322.63;4742337;29;102061;-96
2021/03/08 03:31:29;;;;;;;;;10.00;6.75;;;;;11.01;44.51;98338.88;4759496;29;102116;-96
2021/03/08 03:33:56;;;;;;;;;11.00;9.25;;;;;11.04;44.12;98341.97;4775946;29;104042;-97
2021/03/08 03:36:23;;;;;;;;;8.75;5.25;;;;;10.96;44.20;98336.78;4775246;29;101780;-96
2021/03/08 03:38:51;;;;;;;;;4.75;4.50;;;;;10.95;44.00;98334.28;4766496;29;102249;-96
2021/03/08 03:41:18;;;;;;;;;7.25;6.75;;;;;11.04;44.38;98349.25;4760893;29;102187;-96
2021/03/08 03:43:46;;;;;;;;;7.50;6.50;;;;;10.95;44.54;98335.13;4773860;29;103634;-96
2021/03/08 03:46:13;;;;;;;;;8.75;6.00;;;;;10.95;44.29;98332.41;4777057;29;101906;-96
2021/03/08 03:48:40;;;;;;;;;5.75;5.75;;;;;10.95;44.19;98328.88;4775361;29;101969;-96
2021/03/08 03:51:07;;;;;;;;;8.00;6.00;;;;;10.99;44.45;98340.94;4774923;29;102202;-96
2021/03/08 03:53:38;;;;;;;;;7.75;6.25;;;;;10.90;44.10;98336.78;4774195;29;103341;-96
2021/03/08 03:56:09;;;;;;;;;8.50;7.75;;;;;11.01;44.41;98349.69;4774949;29;103925;-96
2021/03/08 03:58:51;;;;;;;;;10.00;7.25;;;;;11.00;43.95;98348.00;4759237;29;101927;-96
2021/03/08 04:01:21;;;;;;;;;5.00;5.00;;;;;10.88;44.07;98336.19;4771349;29;102103;-96
2021/03/08 04:04:09;;;;;;;;;6.00;5.75;;;;;10.94;43.90;98338.06;4788869;29;104117;-96
2021/03/08 04:06:49;;;;;;;;;6.50;6.00;;;;;10.98;44.12;98348.25;4773079;29;102166;-96
2021/03/08 04:09:20;;;;;;;;;6.00;5.00;;;;;10.90;44.31;98331.38;4773675;29;101726;-96
2021/03/08 04:11:48;;;;;;;;;7.25;6.00;;;;;10.93;43.71;98339.94;4770977;29;102156;-96
2021/03/08 04:14:16;;;;;;;;;6.50;5.75;;;;;10.92;44.23;98340.97;4790225;29;104061;-96
2021/03/08 04:16:46;;;;;;;;;6.50;5.00;;;;;10.92;44.19;98329.31;4755742;29;101796;-96
2021/03/08 04:19:13;;;;;;;;;10.00;7.00;;;;;11.00;44.20;98334.50;4767752;29;102057;-96
2021/03/08 04:21:41;;;;;;;;;4.00;4.00;;;;;11.03;44.25;98343.00;4768813;29;102069;-96
2021/03/08 04:24:08;;;;;;;;;8.75;6.25;;;;;11.05;44.33;98340.09;4771684;29;102233;-96
2021/03/08 04:26:39;;;;;;;;;9.00;5.25;;;;;11.04;44.04;98339.28;4768154;29;101831;-96
2021/03/08 04:29:06;;;;;;;;;6.25;5.00;;;;;11.06;44.26;98337.19;4775009;29;102179;-96
2021/03/08 04:31:34;;;;;;;;;9.25;6.25;;;;;11.14;44.27;98353.22;4790411;29;102190;-96
2021/03/08 04:34:02;;;;;;;;;6.50;5.75;;;;;11.09;43.83;98335.94;4774354;29;102270;-96
2021/03/08 04:36:29;;;;;;;;;5.50;5.00;;;;;11.17;44.19;98344.66;4781091;29;102083;-96
2021/03/08 04:38:56;;;;;;;;;6.75;5.00;;;;;11.17;43.95;98350.06;4772729;29;102120;-96
2021/03/08 04:41:25;;;;;;;;;4.50;4.25;;;;;11.20;43.93;98354.25;4791467;29;102222;-96
2021/03/08 04:43:53;;;;;;;;;5.00;4.25;;;;;11.22;43.80;98351.31;4789469;29;102199;-96
2021/03/08 04:46:20;;;;;;;;;4.25;4.00;;;;;11.21;43.74;98349.66;4759347;29;102161;-96
2021/03/08 04:48:47;;;;;;;;;6.50;5.50;;;;;11.21;43.73;98350.50;4773966;29;101858;-96
2021/03/08 04:51:14;;;;;;;;;5.75;5.00;;;;;11.23;43.74;98351.09;4794463;29;101808;-96
2021/03/08 04:53:41;;;;;;;;;3.75;3.75;;;;;11.20;44.13;98348.84;4773002;29;105966;-96
2021/03/08 04:56:25;;;;;;;;;4.50;4.00;;;;;11.22;44.28;98346.72;4713897;29;102217;-96
2021/03/08 04:58:51;;;;;;;;;6.50;5.25;;;;;11.23;43.83;98352.97;4773348;29;105042;-96
2021/03/08 05:01:18;;;;;;;;;6.00;4.00;;;;;11.31;43.35;98371.69;4772396;29;102223;-96
2021/03/08 05:03:45;;;;;;;;;5.00;4.75;;;;;11.24;43.54;98360.06;4773167;29;104040;-96
2021/03/08 05:06:12;;;;;;;;;9.25;6.50;;;;;11.24;43.90;98369.00;4790035;29;101969;-96
2021/03/08 05:08:40;;;;;;;;;5.00;4.25;;;;;11.31;43.28;98372.53;4771416;29;101818;-96
2021/03/08 05:11:07;;;;;;;;;4.00;4.00;;;;;11.29;44.33;98369.22;4778999;29;102266;-96
2021/03/08 05:13:34;;;;;;;;;6.00;4.75;;;;;11.20;43.62;98359.66;4772994;29;103072;-96
2021/03/08 05:16:02;;;;;;;;;6.00;5.25;;;;;11.26;43.67;98364.22;4772936;29;101952;-96
2021/03/08 05:18:30;;;;;;;;;4.25;4.00;;;;;11.26;43.36;98369.63;4775671;29;101742;-96
2021/03/08 05:20:57;;;;;;;;;6.50;6.00;;;;;11.24;43.52;98365.47;4777122;29;102277;-96
2021/03/08 05:23:24;;;;;;;;;5.50;4.50;;;;;11.23;43.63;98374.63;4788761;29;104023;-96
2021/03/08 05:25:51;;;;;;;;;6.00;5.00;;;;;11.20;43.69;98370.47;4759951;29;101797;-96
2021/03/08 05:28:19;;;;;;;;;6.00;5.25;;;;;11.26;43.48;98379.66;4776016;29;101757;-96
2021/03/08 05:30:46;;;;;;;;;6.00;5.00;;;;;11.18;43.93;98373.38;4776824;29;101864;-96
2021/03/08 05:33:22;;;;;;;;;6.00;5.25;;;;;11.23;43.36;98377.34;4769652;29;109033;-96
2021/03/08 05:35:52;;;;;;;;;7.75;7.00;;;;;11.24;43.79;98387.97;4742440;29;102182;-96
2021/03/08 05:38:21;;;;;;;;;5.75;5.00;;;;;11.19;43.47;98380.47;4777509;29;102068;-96
2021/03/08 05:41:05;;;;;;;;;7.25;4.00;;;;;11.28;43.32;98394.63;4778026;29;102208;-96
2021/03/08 05:43:34;;;;;;;;;4.50;3.25;;;;;11.19;43.57;98379.63;4774986;29;105127;-96
2021/03/08 05:46:16;;;;;;;;;4.50;4.00;;;;;11.20;43.66;98392.13;4774175;29;102134;-96
2021/03/08 05:49:01;;;;;;;;;5.25;5.25;;;;;11.22;43.70;98390.03;4750900;29;102308;-96
2021/03/08 05:51:34;;;;;;;;;4.50;4.00;;;;;11.24;43.57;98401.50;4709882;29;102311;-96
2021/03/08 05:54:01;;;;;;;;;5.00;4.25;;;;;11.24;43.71;98398.78;4790640;29;104598;-96
2021/03/08 05:56:52;;;;;;;;;5.00;4.50;;;;;11.24;43.69;98398.78;4791624;29;102087;-96
2021/03/08 05:59:31;;;;;;;;;5.00;5.00;;;;;11.24;43.37;98409.63;4772168;29;102006;-96
2021/03/08 06:02:04;;;;;;;;;7.50;6.00;;;;;11.20;43.51;98397.53;4788739;29;102128;-96
2021/03/08 06:05:05;;;;;;;;;4.00;4.00;;;;;11.24;43.53;98406.91;4773886;29;104088;-96
2021/03/08 06:07:53;;;;;;;;;5.50;5.00;;;;;11.18;43.63;98402.31;4660413;29;102235;-96
2021/03/08 06:10:24;;;;;;;;;6.75;4.25;;;;;11.21;43.74;98410.03;4786492;29;101919;-96
2021/03/08 06:12:54;;;;;;;;;4.00;4.00;;;;;11.18;43.45;98415.84;4792510;29;102152;-96
2021/03/08 06:15:25;;;;;;;;;7.00;5.00;;;;;11.17;43.49;98414.19;4769771;29;104191;-96
2021/03/08 06:17:53;;;;;;;;;5.00;4.00;;;;;11.15;43.40;98419.00;4775442;29;102087;-96
2021/03/08 06:20:20;;;;;;;;;4.75;4.75;;;;;11.14;43.68;98409.19;4789343;29;101798;-96
2021/03/08 06:22:48;;;;;;;;;5.25;4.00;;;;;11.16;43.70;98423.38;4795225;29;109810;-96
2021/03/08 06:25:15;;;;;;;;;8.50;5.75;;;;;11.10;43.52;98416.06;4770086;29;108719;-96
2021/03/08 06:27:46;;;;;;;;;4.00;4.00;;;;;11.13;43.69;98413.78;4785796;29;102185;-96
2021/03/08 06:30:13;;;;;;;;;4.00;3.75;;;;;11.12;43.74;98422.13;4784324;29;104043;-96
2021/03/08 06:32:40;;;;;;;;;5.75;5.75;;;;;11.13;43.67;98430.00;4775926;29;102257;-96
2021/03/08 06:35:07;;;;;;;;;6.00;5.25;;;;;11.15;43.80;98440.63;4788530;29;104593;-96
2021/03/08 06:37:34;;;;;;;;;5.50;4.00;;;;;11.09;43.61;98427.94;4763349;29;102010;-96
2021/03/08 06:40:01;;;;;;;;;6.00;5.00;;;;;11.15;43.08;98448.75;4786946;29;102036;-96
2021/03/08 06:42:28;;;;;;;;;5.25;4.00;;;;;11.09;43.85;98444.16;4789448;29;106121;-96
2021/03/08 06:44:55;;;;;;;;;4.50;4.25;;;;;11.07;43.63;98443.56;4751699;29;104295;-96
2021/03/08 06:47:22;;;;;;;;;5.00;5.00;;;;;11.14;43.55;98457.91;4771184;29;102264;-96
2021/03/08 06:49:49;;;;;;;;;6.00;5.00;;;;;11.05;43.44;98445.63;4785934;29;101802;-96
2021/03/08 06:52:18;;;;;;;;;5.00;4.25;;;;;11.07;43.57;98451.69;4792688;29;102377;-96
2021/03/08 06:54:59;;;;;;;;;4.00;4.00;;;;;11.13;43.50;98461.66;4779066;29;107863;-96
2021/03/08 06:57:29;;;;;;;;;3.75;3.00;;;;;11.10;43.71;98467.47;4726866;29;102138;-96
2021/03/08 06:59:56;;;;;;;;;5.00;4.25;;;;;11.11;43.72;98471.88;4757590;29;102128;-96
2021/03/08 07:02:44;;;;;;;;;5.25;4.75;;;;;11.05;43.74;98469.97;4784871;29;102182;-96
2021/03/08 07:05:13;;;;;;;;;5.50;4.00;;;;;11.11;43.74;98483.53;4784056;29;104208;-96
2021/03/08 07:07:58;;;;;;;;;5.00;4.00;;;;;11.06;43.47;98482.47;4775176;29;102159;-96
2021/03/08 07:10:36;;;;;;;;;4.50;4.25;;;;;11.04;43.88;98479.13;4675830;29;102194;-96
2021/03/08 07:13:04;;;;;;;;;4.00;4.00;;;;;11.06;43.52;98485.19;4792217;29;102146;-96
2021/03/08 07:15:31;;;;;;;;;3.50;2.00;;;;;11.08;43.84;98496.59;4788368;29;105639;-96
2021/03/08 07:17:59;;;;;;;;;5.00;4.25;;;;;11.07;43.53;98495.81;4787347;29;102502;-96
2021/03/08 07:20:26;;;;;;;;;5.00;3.25;;;;;11.04;43.76;98495.34;4788729;29;102327;-96
2021/03/08 07:22:54;;;;;;;;;4.00;4.00;;;;;11.06;43.66;98504.94;4757165;29;102191;-97
2021/03/08 07:25:28;;;;;;;;;5.50;5.00;;;;;11.04;43.83;98495.34;4786167;29;104081;-96
2021/03/08 07:27:57;;;;;;;;;8.75;5.75;;;;;11.04;43.84;98496.19;4771965;29;102077;-96
2021/03/08 07:30:37;;;;;;;;;4.25;4.25;;;;;11.04;44.01;98507.03;4773473;29;102126;-96
2021/03/08 07:33:05;;;;;;;;;4.00;4.00;;;;;11.02;43.78;98509.13;4790185;29;102157;-96
2021/03/08 07:35:43;;;;;;;;;3.00;3.00;;;;;11.01;43.84;98502.03;4785793;29;104109;-96
2021/03/08 07:38:13;;;;;;;;;4.75;4.00;;;;;10.99;43.83;98503.25;4767982;29;101851;-96
2021/03/08 07:40:41;;;;;;;;;4.00;3.00;;;;;11.03;43.65;98504.53;4757669;29;102142;-96
2021/03/08 07:43:24;;;;;;;;;4.00;4.00;;;;;11.01;43.71;98510.16;4728083;29;101970;-96
2021/03/08 07:45:52;;;;;;;;;4.50;3.25;;;;;11.00;43.77;98530.13;4765123;29;108772;-96
2021/03/08 07:48:20;;;;;;;;;4.00;3.00;;;;;11.02;43.78;98519.09;4773838;29;101915;-96
2021/03/08 07:50:51;;;;;;;;;5.50;4.00;;;;;10.96;43.90;98514.50;4774816;29;102141;-96
2021/03/08 07:53:36;;;;;;;;;5.75;4.75;;;;;11.01;44.02;98520.13;4772727;29;102143;-96
2021/03/08 07:56:05;;;;;;;;;4.25;3.75;;;;;11.01;43.82;98534.50;4725250;29;107564;-96
2021/03/08 07:58:34;;;;;;;;;4.75;4.75;;;;;10.97;43.50;98527.00;4775584;29;102178;-96
2021/03/08 08:01:10;;;;;;;;;5.00;3.00;;;;;10.96;44.20;98533.44;4774243;29;102045;-96
2021/03/08 08:03:37;;;;;;;;;5.50;4.75;;;;;10.94;43.68;98522.00;4776576;29;102029;-96
2021/03/08 08:06:06;;;;;;;;;5.00;3.50;;;;;10.92;43.91;98521.38;4770916;29;104046;-96
2021/03/08 08:08:34;;;;;;;;;4.25;3.50;;;;;10.95;43.98;98529.06;4772847;29;102220;-96
2021/03/08 08:11:02;;;;;;;;;6.00;5.00;;;;;10.97;43.86;98532.41;4776931;29;101656;-96
2021/03/08 08:13:39;;;;;;;;;4.75;4.75;;;;;10.91;44.29;98538.63;4777201;29;102250;-96
2021/03/08 08:16:07;;;;;;;;;5.00;5.00;;;;;10.91;43.98;98535.91;4770209;29;104503;-96
2021/03/08 08:18:45;;;;;;;;;6.50;5.00;;;;;10.93;44.13;98550.09;4773419;29;102135;-96
2021/03/08 08:21:13;;;;;;;;;5.00;5.00;;;;;10.91;43.79;98549.44;4773955;29;102027;-96
2021/03/08 08:23:42;;;;;;;;;5.00;4.50;;;;;10.91;44.08;98557.56;4776542;29;105065;-96
2021/03/08 08:26:17;;;;;;;;;7.25;6.00;;;;;10.91;43.84;98544.03;4772674;29;104508;-96
2021/03/08 08:28:44;;;;;;;;;5.50;5.00;;;;;10.89;43.69;98548.84;4788130;29;102094;-96
2021/03/08 08:31:11;;;;;;;;;5.50;4.75;;;;;10.91;43.79;98555.69;4769752;29;101779;-96
2021/03/08 08:33:38;;;;;;;;;7.25;5.00;;;;;10.89;43.83;98555.06;4775930;29;102252;-96
2021/03/08 08:36:10;;;;;;;;;4.50;3.50;;;;;10.95;44.08;98550.69;4773177;29;103179;-96
2021/03/08 08:38:38;;;;;;;;;5.00;4.00;;;;;10.96;43.64;98568.59;4756583;29;102086;-96
2021/03/08 08:41:25;;;;;;;;;5.00;3.00;;;;;10.96;43.68;98564.03;4756077;29;103485;-96
2021/03/08 08:44:12;;;;;;;;;5.50;5.00;;;;;10.95;44.16;98566.94;4771093;29;102206;-96
2021/03/08 08:46:45;;;;;;;;;5.00;4.00;;;;;10.90;43.68;98559.44;4788577;29;105571;-96
2021/03/08 08:49:19;;;;;;;;;5.25;3.75;;;;;10.92;43.78;98561.94;4773570;29;102168;-96
2021/03/08 08:51:54;;;;;;;;;5.00;4.25;;;;;10.95;43.92;98566.94;4773850;29;102108;-96
2021/03/08 08:54:27;;;;;;;;;6.00;6.00;;;;;10.97;44.01;98570.28;4770350;29;102103;-96
2021/03/08 08:57:08;;;;;;;;;9.25;6.50;;;;;10.91;43.95;98562.97;4769188;29;105265;-96
2021/03/08 08:59:36;;;;;;;;;5.25;4.50;;;;;10.96;43.76;98574.00;4769784;29;102113;-96
2021/03/08 09:02:18;;;;;;;;;4.25;4.25;;;;;10.98;43.65;98586.31;4773633;29;101627;-96
2021/03/08 09:04:45;;;;;;;;;5.50;5.25;;;;;10.90;43.93;98569.41;4777297;29;102178;-96
2021/03/08 09:07:19;;;;;;;;;6.25;4.25;;;;;10.94;43.71;98576.09;4774480;29;104582;-96
2021/03/08 09:09:46;;;;;;;;;4.00;2.50;;;;;11.00;44.03;98580.69;4773288;29;102181;-96
2021/03/08 09:12:36;;;;;;;;;6.00;5.00;;;;;10.94;43.69;98565.28;4679788;29;102547;-96
2021/03/08 09:15:08;;;;;;;;;7.00;5.00;;;;;11.00;43.73;98564.44;4776227;29;102219;-96
2021/03/08 09:17:56;;;;;;;;;6.00;5.00;;;;;11.00;43.79;98569.88;4771609;29;104432;-96
2021/03/08 09:20:27;;;;;;;;;6.00;4.75;;;;;10.97;43.74;98573.00;4774404;29;102172;-96
2021/03/08 09:23:02;;;;;;;;;4.25;4.25;;;;;10.99;43.86;98579.00;4773690;29;101672;-96
2021/03/08 09:25:33;;;;;;;;;7.00;4.75;;;;;10.99;43.76;98571.72;4775467;29;101954;-96
2021/03/08 09:28:03;;;;;;;;;6.50;5.25;;;;;11.02;43.61;98575.91;4789447;29;104055;-96
2021/03/08 09:30:41;;;;;;;;;4.25;3.50;;;;;10.98;43.67;98571.94;4772071;29;101816;-96
2021/03/08 09:33:12;;;;;;;;;6.00;5.00;;;;;10.98;43.83;98569.25;4775729;29;102101;-96
2021/03/08 09:35:42;;;;;;;;;6.50;5.00;;;;;11.00;43.63;98575.28;4774622;29;102242;-96
2021/03/08 09:38:11;;;;;;;;;6.00;4.00;;;;;11.00;43.92;98569.88;4777863;29;104463;-96
2021/03/08 09:40:46;;;;;;;;;6.00;5.25;;;;;11.00;43.59;98580.69;4793252;29;101969;-96
2021/03/08 09:43:35;;;;;;;;;7.25;5.50;;;;;11.04;44.05;98581.94;4777230;29;101956;-96
2021/03/08 09:46:03;;;;;;;;;6.00;4.75;;;;;11.06;43.41;98591.53;4682629;29;102242;-96
2021/03/08 09:48:37;;;;;;;;;9.00;6.00;;;;;11.08;43.58;98588.59;4759216;29;103982;-96
2021/03/08 09:51:09;;;;;;;;;5.00;4.00;;;;;11.04;43.43;98592.75;4767367;29;102051;-96
2021/03/08 09:53:38;;;;;;;;;7.25;6.50;;;;;11.04;43.51;98598.16;4791788;29;102001;-96
2021/03/08 09:56:06;;;;;;;;;4.00;4.00;;;;;11.05;43.64;98621.50;4791637;29;102225;-96
2021/03/08 09:58:33;;;;;;;;;6.50;5.75;;;;;11.08;43.68;98611.09;4773190;29;104016;-96
2021/03/08 10:01:25;;;;;;;;;4.00;4.00;;;;;11.09;43.65;98609.22;4790234;29;102016;-96
2021/03/08 10:03:52;;;;;;;;;5.00;5.00;;;;;11.09;43.63;98615.47;4758219;29;101650;-96
2021/03/08 10:06:39;;;;;;;;;5.25;4.00;;;;;11.07;43.76;98620.28;4791273;29;102064;-96
2021/03/08 10:09:20;;;;;;;;;5.75;4.25;;;;;11.09;43.65;98612.75;4775897;29;104066;-96
2021/03/08 10:11:46;;;;;;;;;6.50;5.75;;;;;11.09;43.23;98620.88;4791175;29;102111;-96
2021/03/08 10:14:27;;;;;;;;;5.25;5.25;;;;;11.06;43.83;98625.88;4790681;29;102003;-96
2021/03/08 10:17:10;;;;;;;;;4.00;4.00;;;;;11.11;43.41;98610.69;4772027;29;102160;-96
2021/03/08 10:19:38;;;;;;;;;5.75;4.00;;;;;11.11;43.55;98626.09;4793255;29;104107;-96
2021/03/08 10:22:06;;;;;;;;;5.25;5.00;;;;;11.03;43.60;98615.47;4792381;29;102108;-96
2021/03/08 10:24:37;;;;;;;;;4.00;3.75;;;;;11.09;43.45;98628.16;4788994;29;102013;-96
2021/03/08 10:27:11;;;;;;;;;6.50;4.50;;;;;11.13;43.60;98632.13;4772095;29;102087;-96
2021/03/08 10:29:40;;;;;;;;;3.25;3.00;;;;;11.11;43.36;98635.06;4789856;29;103844;-96
2021/03/08 10:32:09;;;;;;;;;7.00;5.25;;;;;11.11;43.31;98632.34;4774209;29;102073;-96
2021/03/08 10:34:37;;;;;;;;;4.00;4.00;;;;;11.12;43.02;98635.91;4782125;29;101972;-96
2021/03/08 10:37:09;;;;;;;;;5.50;4.75;;;;;11.16;43.35;98650.69;4790911;29;102092;-96
2021/03/08 10:39:36;;;;;;;;;5.25;4.00;;;;;11.12;43.57;98639.41;4772101;29;102223;-96
2021/03/08 10:42:03;;;;;;;;;5.25;4.25;;;;;11.18;43.38;98637.75;4787124;29;102298;-96
2021/03/08 10:44:30;;;;;;;;;6.25;5.25;;;;;11.17;42.87;98636.09;4771848;29;102174;-96
2021/03/08 10:46:56;;;;;;;;;3.00;3.00;;;;;11.17;43.43;98633.38;4770088;29;102217;-96
2021/03/08 10:49:24;;;;;;;;;4.75;4.75;;;;;11.14;43.08;98631.09;4773569;29;104100;-96
2021/03/08 10:51:51;;;;;;;;;3.25;3.25;;;;;11.14;43.19;98636.50;4790533;29;101794;-96
2021/03/08 10:54:19;;;;;;;;;6.00;4.25;;;;;11.17;43.28;98641.50;4772376;29;102065;-96
2021/03/08 10:56:47;;;;;;;;;8.00;5.00;;;;;11.24;43.53;98650.50;4776807;29;102189;-96
2021/03/08 10:59:29;;;;;;;;;4.50;4.25;;;;;11.22;43.34;98646.31;4774142;29;103327;-96
2021/03/08 11:02:10;;;;;;;;;5.50;4.50;;;;;11.26;43.05;98645.69;4759893;29;101723;-96
2021/03/08 11:04:37;;;;;;;;;4.25;4.00;;;;;11.26;43.24;98624.03;4773341;29;110876;-96
2021/03/08 11:07:06;;;;;;;;;5.75;4.00;;;;;11.31;43.12;98643.22;4757730;29;102142;-96
2021/03/08 11:09:34;;;;;;;;;5.00;5.00;;;;;11.33;43.37;98640.31;4772374;29;103018;-96
2021/03/08 11:12:03;;;;;;;;;4.25;4.00;;;;;11.34;42.50;98642.00;4771726;29;109337;-96
2021/03/08 11:14:30;;;;;;;;;4.50;3.50;;;;;11.31;43.14;98637.81;4774135;29;102198;-96
2021/03/08 11:16:58;;;;;;;;;2.75;2.75;;;;;11.30;43.10;98636.13;4770202;29;102158;-96
2021/03/08 11:19:26;;;;;;;;;4.00;3.00;;;;;11.32;43.18;98642.19;4771782;29;105324;-96
2021/03/08 11:22:12;;;;;;;;;2.75;2.00;;;;;11.31;43.20;98637.81;4768188;29;102165;-96
2021/03/08 11:24:49;;;;;;;;;3.25;3.25;;;;;11.35;43.23;98640.91;4771038;29;102240;-96
2021/03/08 11:27:27;;;;;;;;;4.50;4.00;;;;;11.41;42.82;98653.66;4754357;29;102187;-96
2021/03/08 11:30:05;;;;;;;;;4.25;4.00;;;;;11.41;42.99;98642.81;4766929;29;109324;-96
2021/03/08 11:32:32;;;;;;;;;5.00;4.50;;;;;11.41;42.92;98643.66;4774837;29;101795;-96
2021/03/08 11:35:32;;;;;;;;;3.75;3.75;;;;;11.45;42.82;98644.91;4784437;29;102077;-96
2021/03/08 11:38:08;;;;;;;;;4.00;4.00;;;;;11.44;42.75;98645.94;4679657;29;102272;-96
2021/03/08 11:40:36;;;;;;;;;3.00;3.00;;;;;11.53;42.93;98652.84;4774487;29;104067;-96
2021/03/08 11:43:03;;;;;;;;;7.00;3.75;;;;;11.52;42.41;98650.34;4772742;29;103856;-96